• Join FlightAware (Why Join?)
  • Login
  • US Flag 
10:37PM EDT


 

Airport Tracker/Info


-or-


 

Live Flight TrackerFlight Track Log ✈ TAM3736 ✈ 09-Mar-2014 ✈ SBSP / CGH - SBSR / SJP

Flight Track Log - Related Links

Times and Time Zones

All times are in EDT time to prevent confusion due to time zone crossing. See the TAM3736 flight status page for this flight to view local times or setup timezone preferences in your user account.

Time Position Orientation Groundspeed Altitude Reporting Facility
EDT Latitude Longitude Course Direction KTS MPH feet Rate Location/Type
09:44PM -22.8608 -47.4208 317° Northwest  Level Estimated
09:45PM -22.8060 -47.4752 318° Northwest  Level Estimated
09:46PM -22.7511 -47.5295 318° Northwest  Level Estimated
09:47PM -22.6962 -47.5837 318° Northwest  Level Estimated
09:48PM -22.6413 -47.6380 318° Northwest  Level Estimated
09:49PM -22.5864 -47.6921 318° Northwest  Level Estimated
09:50PM -22.5315 -47.7463 318° Northwest  Level Estimated
09:51PM -22.4765 -47.8003 318° Northwest  Level Estimated
09:52PM -22.4216 -47.8544 318° Northwest  Level Estimated
09:53PM -22.3666 -47.9084 318° Northwest  Level Estimated
09:54PM -22.3116 -47.9623 318° Northwest  Level Estimated
09:55PM -22.2565 -48.0162 318° Northwest  Level Estimated
09:56PM -22.2015 -48.0701 318° Northwest  Level Estimated
09:57PM -22.1464 -48.1239 318° Northwest  Level Estimated
09:58PM -22.0913 -48.1777 318° Northwest  Level Estimated
09:59PM -22.0362 -48.2314 318° Northwest  Level Estimated
10:00PM -21.9811 -48.2851 318° Northwest  Level Estimated
10:01PM -21.9260 -48.3388 318° Northwest  Level Estimated
10:02PM -21.8708 -48.3924 318° Northwest  Level Estimated
10:03PM -21.8157 -48.4460 318° Northwest  Level Estimated
10:04PM -21.7605 -48.4995 318° Northwest  Level Estimated
10:05PM -21.7053 -48.5530 318° Northwest  Level Estimated
10:06PM -21.6501 -48.6065 318° Northwest  Level Estimated
10:07PM -21.5948 -48.6599 318° Northwest  Level Estimated
10:08PM -21.5396 -48.7133 318° Northwest  Level Estimated
10:09PM -21.4843 -48.7666 318° Northwest  Level Estimated
10:10PM -21.4290 -48.8199 318° Northwest  Level Estimated
10:11PM -21.3737 -48.8731 318° Northwest  Level Estimated
10:12PM -21.3184 -48.9263 318° Northwest  Level Estimated
10:13PM -21.2631 -48.9795 318° Northwest  Level Estimated
10:14PM -21.2077 -49.0326 318° Northwest  Level Estimated
10:15PM -21.1523 -49.0857 318° Northwest  Level Estimated
10:16PM -21.0970 -49.1388 318° Northwest  Level Estimated
10:17PM -21.0416 -49.1918 318° Northwest  Level Estimated
10:18PM -20.9861 -49.2448 318° Northwest  Level Estimated
10:19PM -20.9307 -49.2977 318° Northwest  Level Estimated
10:20PM -20.8752 -49.3506 318° Northwest  Level Estimated
10:21PM -20.8198 -49.4035 318° Northwest  Level Estimated
10:22PM -20.8166 -49.4065 318° Northwest  Level Estimated
10:23PM -20.8166 -49.4065 North  Level Estimated
10:24PM -20.8166 -49.4065 North  Level Estimated
10:25PM -20.8166 -49.4065 North  Level Estimated
10:26PM -20.8166 -49.4065 North  Level Estimated
10:27PM -20.8166 -49.4065 North  Level Estimated
10:28PM -20.8166 -49.4065 North  Level Estimated
10:29PM -20.8166 -49.4065 North  Level Estimated
10:30PM -20.8166 -49.4065 North  Level Estimated
10:31PM -20.8166 -49.4065 North  Level Estimated
10:32PM -20.8166 -49.4065 North  Level Estimated
10:33PM -20.8166 -49.4065 North  Level Estimated
10:34PM -20.8166 -49.4065 North  Level Estimated
10:35PM -20.8166 -49.4065 North  Level Estimated
10:36PM -20.8166 -49.4065 North  Level Estimated
10:37PM -20.8166 -49.4065 North  Level Estimated